Time;durP1;ratioP1;P1;durP2;ratioP2;P2;SDS_P1;SDS_P2;PMS_P1;PMS_P2;Temp;Humidity;BMP_temperature;BMP_pressure;BME280_temperature;BME280_humidity;BME280_pressure;Samples;Min_cycle;Max_cycle;Signal;HPM_P1;HPM_P2
2023/06/26 00:00:12;;;;;;;6.03;3.42;;;;;;;29.17;42.63;101000.44;4938101;29;20031;-62
2023/06/26 00:02:37;;;;;;;4.55;3.63;;;;;;;29.16;42.93;100998.75;4970001;28;20035;-62
2023/06/26 00:05:02;;;;;;;12.85;5.38;;;;;;;29.15;41.78;101008.94;4950710;28;20504;-61
2023/06/26 00:07:29;;;;;;;6.07;4.43;;;;;;;29.13;42.62;101011.13;4953242;29;20028;-61
2023/06/26 00:09:55;;;;;;;5.78;4.38;;;;;;;29.11;43.04;101010.53;4954989;28;20038;-62
2023/06/26 00:12:20;;;;;;;7.10;3.58;;;;;;;29.11;42.16;101007.78;4954200;28;20031;-61
2023/06/26 00:14:46;;;;;;;4.05;3.33;;;;;;;29.07;41.94;101012.09;4950422;28;20512;-61
2023/06/26 00:17:11;;;;;;;13.20;4.78;;;;;;;29.00;42.06;101003.13;4954101;28;20114;-62
2023/06/26 00:19:37;;;;;;;9.65;4.07;;;;;;;28.98;42.02;101013.56;4951239;28;20035;-61
2023/06/26 00:22:02;;;;;;;10.70;4.22;;;;;;;28.96;42.84;101010.22;4969510;28;20054;-61
2023/06/26 00:24:27;;;;;;;7.00;3.90;;;;;;;28.93;42.36;101005.19;4969626;28;20110;-62
2023/06/26 00:26:53;;;;;;;6.70;3.90;;;;;;;28.90;42.95;101005.69;4953634;28;20487;-61
2023/06/26 00:29:18;;;;;;;5.57;4.05;;;;;;;28.86;43.15;101015.53;4955094;28;20062;-61
2023/06/26 00:31:44;;;;;;;5.82;3.88;;;;;;;28.85;43.03;101014.69;4953680;28;20127;-61
2023/06/26 00:34:09;;;;;;;6.78;3.55;;;;;;;28.88;43.10;101016.13;4954409;28;20114;-62
2023/06/26 00:36:35;;;;;;;6.10;3.65;;;;;;;28.92;42.74;101025.59;4953667;28;20391;-63
2023/06/26 00:39:00;;;;;;;8.10;3.70;;;;;;;28.97;42.90;101014.66;4954644;28;20109;-62
2023/06/26 00:41:26;;;;;;;5.63;3.97;;;;;;;29.04;42.81;101020.84;4953439;28;20105;-62
2023/06/26 00:43:51;;;;;;;3.78;3.10;;;;;;;29.12;42.16;101011.38;4937382;28;20495;-62
2023/06/26 00:46:16;;;;;;;4.95;3.40;;;;;;;29.22;41.61;101012.44;4954818;28;20027;-62
2023/06/26 00:48:43;;;;;;;5.68;3.40;;;;;;;29.31;41.56;101008.16;4953424;28;20463;-62
2023/06/26 00:51:09;;;;;;;6.43;3.70;;;;;;;29.36;41.64;101005.53;4969468;28;20105;-61
2023/06/26 00:53:35;;;;;;;9.75;3.45;;;;;;;29.43;41.28;101003.44;4969456;28;20050;-62
2023/06/26 00:56:03;;;;;;;8.10;3.60;;;;;;;29.50;41.61;101005.19;4953249;28;20480;-62
2023/06/26 00:58:29;;;;;;;5.97;3.42;;;;;;;29.52;41.53;100998.34;4953228;28;20050;-61
2023/06/26 01:00:54;;;;;;;6.85;3.67;;;;;;;29.55;41.44;101003.34;4969513;28;20031;-61
2023/06/26 01:03:22;;;;;;;4.85;3.10;;;;;;;29.61;40.80;100999.59;4953705;28;20364;-61
2023/06/26 01:05:49;;;;;;;10.02;3.90;;;;;;;29.66;40.73;101001.59;4955259;28;20031;-61
2023/06/26 01:08:16;;;;;;;9.32;3.95;;;;;;;29.70;40.79;101005.56;4955981;28;20011;-61
2023/06/26 01:10:42;;;;;;;7.05;3.90;;;;;;;29.73;41.05;101005.88;4959843;28;20026;-62
2023/06/26 01:13:08;;;;;;;5.43;3.60;;;;;;;29.77;40.70;101006.22;4960012;28;20035;-63
2023/06/26 01:15:33;;;;;;;4.63;3.70;;;;;;;29.80;40.36;101002.97;4960004;28;20036;-62
2023/06/26 01:17:59;;;;;;;6.50;3.22;;;;;;;29.82;39.88;100998.03;4958442;28;20043;-62
2023/06/26 01:20:26;;;;;;;3.72;3.13;;;;;;;29.85;40.66;100998.38;4958483;28;20103;-62
2023/06/26 01:23:09;;;;;;;5.80;2.95;;;;;;;29.88;40.45;101002.56;4941343;28;20031;-61
2023/06/26 01:25:51;;;;;;;9.10;3.50;;;;;;;29.88;40.01;100997.03;4958161;28;20450;-61
2023/06/26 01:28:17;;;;;;;5.10;3.88;;;;;;;29.90;40.40;101008.69;4958614;28;20558;-62
2023/06/26 01:30:44;;;;;;;5.97;4.28;;;;;;;29.93;40.26;101016.44;4957354;29;20039;-62
2023/06/26 01:33:11;;;;;;;6.50;3.35;;;;;;;29.92;40.28;101020.31;4941246;29;20446;-62
2023/06/26 01:35:36;;;;;;;5.35;3.50;;;;;;;29.93;39.90;101027.50;4956951;29;20439;-62
2023/06/26 01:38:13;;;;;;;4.68;3.40;;;;;;;29.93;40.30;101028.34;4924903;29;20043;-62
2023/06/26 01:40:39;;;;;;;7.75;3.70;;;;;;;29.89;39.63;101032.72;4956611;29;20106;-62
2023/06/26 01:43:06;;;;;;;5.40;3.78;;;;;;;29.90;40.33;101034.38;4972503;28;20503;-62
2023/06/26 01:45:32;;;;;;;10.32;4.20;;;;;;;29.89;39.98;101032.72;4956462;29;20047;-62
2023/06/26 01:48:00;;;;;;;7.45;4.45;;;;;;;29.88;40.17;101042.06;4956421;29;20077;-62
2023/06/26 01:50:28;;;;;;;6.88;3.58;;;;;;;29.88;39.98;101044.00;4956536;29;20043;-62
2023/06/26 01:53:13;;;;;;;5.97;3.47;;;;;;;29.87;40.31;101045.09;4956401;29;20047;-62
2023/06/26 01:56:05;;;;;;;9.00;3.50;;;;;;;29.83;40.36;101046.69;4940283;29;20578;-62
2023/06/26 01:58:32;;;;;;;8.80;3.83;;;;;;;29.81;40.11;101051.63;4940141;29;20114;-61
2023/06/26 02:00:57;;;;;;;5.13;3.20;;;;;;;29.78;39.79;101052.09;4924136;29;20102;-61
2023/06/26 02:03:24;;;;;;;7.20;3.45;;;;;;;29.77;39.84;101059.53;4956048;29;20503;-62
2023/06/26 02:05:50;;;;;;;5.30;3.15;;;;;;;29.76;39.95;101049.56;4956198;29;20049;-62
2023/06/26 02:08:16;;;;;;;4.53;3.13;;;;;;;29.76;39.97;101059.81;4956144;29;20474;-61
2023/06/26 02:10:41;;;;;;;3.95;2.78;;;;;;;29.73;39.56;101066.63;4956002;29;20585;-61
2023/06/26 02:13:07;;;;;;;3.20;2.63;;;;;;;29.72;39.55;101064.13;4957176;28;20034;-61
2023/06/26 02:15:32;;;;;;;7.78;3.10;;;;;;;29.71;40.17;101067.97;4955906;29;20067;-62
2023/06/26 02:17:57;;;;;;;6.20;3.08;;;;;;;29.71;39.60;101067.97;4957039;28;20542;-61
2023/06/26 02:20:23;;;;;;;5.25;3.30;;;;;;;29.64;39.44;101068.16;4939679;29;20110;-61
2023/06/26 02:22:48;;;;;;;4.75;3.08;;;;;;;29.64;39.34;101083.88;4955904;29;20118;-62
2023/06/26 02:25:14;;;;;;;6.63;3.30;;;;;;;29.58;39.33;101084.88;4955323;29;20035;-62
2023/06/26 02:27:39;;;;;;;5.07;3.53;;;;;;;29.63;39.49;101082.19;4955645;29;20097;-62
2023/06/26 02:30:05;;;;;;;4.95;2.97;;;;;;;29.61;39.78;101092.66;4939589;29;20062;-62
2023/06/26 02:32:30;;;;;;;4.43;2.92;;;;;;;29.61;39.47;101093.50;4955193;28;20407;-62
2023/06/26 02:34:56;;;;;;;5.80;2.83;;;;;;;29.58;40.12;101087.63;4938739;29;20051;-62
2023/06/26 02:37:21;;;;;;;5.65;3.25;;;;;;;29.53;39.28;101099.44;4943452;28;20492;-62
2023/06/26 02:39:46;;;;;;;4.47;3.47;;;;;;;29.52;39.59;101085.84;4920722;29;20036;-62
2023/06/26 02:42:12;;;;;;;7.25;3.10;;;;;;;29.53;39.83;101101.34;4936424;29;20523;-61
2023/06/26 02:44:37;;;;;;;4.55;2.80;;;;;;;29.50;39.80;101099.91;4936254;28;20048;-63
2023/06/26 02:47:03;;;;;;;4.50;2.70;;;;;;;29.50;39.44;101099.06;4935964;29;20167;-63
2023/06/26 02:49:28;;;;;;;4.60;2.58;;;;;;;29.47;40.00;101097.66;4937284;28;20528;-62
2023/06/26 02:51:53;;;;;;;6.38;3.00;;;;;;;29.45;39.05;101106.16;4937190;29;20044;-61
2023/06/26 02:54:19;;;;;;;5.22;2.75;;;;;;;29.42;39.16;101109.44;4937075;29;20042;-61
2023/06/26 02:56:44;;;;;;;12.75;2.60;;;;;;;29.39;39.84;101109.94;4920070;28;20048;-63
2023/06/26 02:59:10;;;;;;;4.30;2.45;;;;;;;29.37;39.66;101106.56;4935856;28;20408;-62
2023/06/26 03:01:35;;;;;;;4.57;2.55;;;;;;;29.38;39.82;101129.50;4935912;28;20024;-63
2023/06/26 03:04:00;;;;;;;8.60;2.45;;;;;;;29.35;38.90;101119.78;4936042;28;20082;-62
2023/06/26 03:06:27;;;;;;;5.47;2.83;;;;;;;29.32;39.25;101123.03;4937267;28;20040;-61
2023/06/26 03:08:53;;;;;;;7.25;3.42;;;;;;;29.31;39.21;101121.34;4946857;28;20120;-61
2023/06/26 03:11:18;;;;;;;7.18;3.67;;;;;;;29.26;39.81;101115.72;4935597;28;20031;-61
2023/06/26 03:13:43;;;;;;;5.10;3.00;;;;;;;29.24;39.58;101123.41;4935523;28;20036;-61
2023/06/26 03:16:09;;;;;;;6.45;3.25;;;;;;;29.21;39.72;101123.03;4935483;28;20495;-61
2023/06/26 03:18:34;;;;;;;4.60;3.08;;;;;;;29.16;39.78;101126.53;4935344;28;20054;-61
2023/06/26 03:20:59;;;;;;;4.43;3.38;;;;;;;29.14;39.99;101134.22;4919514;28;20079;-61
2023/06/26 03:23:25;;;;;;;5.10;3.17;;;;;;;29.09;39.97;101130.53;4919418;28;20400;-62
2023/06/26 03:25:50;;;;;;;5.50;3.58;;;;;;;29.05;40.36;101138.44;4919486;28;20108;-62
2023/06/26 03:28:16;;;;;;;3.63;2.78;;;;;;;29.02;39.80;101136.16;4936475;28;20019;-62
2023/06/26 03:30:41;;;;;;;13.88;5.28;;;;;;;28.98;40.91;101140.47;4935185;28;20024;-62
2023/06/26 03:33:07;;;;;;;5.60;2.92;;;;;;;28.93;41.08;101136.75;4935498;28;20454;-62
2023/06/26 03:35:32;;;;;;;7.07;3.47;;;;;;;28.92;40.65;101141.47;4935148;28;20024;-61
2023/06/26 03:37:58;;;;;;;4.68;3.03;;;;;;;28.89;41.45;101142.75;4919301;28;20031;-62
2023/06/26 03:40:24;;;;;;;3.75;3.00;;;;;;;28.87;41.28;101149.59;4951408;28;20024;-62
2023/06/26 03:42:49;;;;;;;5.63;3.10;;;;;;;28.83;41.15;101153.94;4926383;28;20063;-61
2023/06/26 03:45:14;;;;;;;4.55;2.95;;;;;;;28.81;40.59;101162.44;4954388;28;20035;-62
2023/06/26 03:47:40;;;;;;;4.45;2.53;;;;;;;28.81;41.20;101167.16;4953200;28;20068;-61
2023/06/26 03:50:06;;;;;;;5.05;3.28;;;;;;;28.77;40.35;101165.94;4938164;28;20403;-63
2023/06/26 03:52:31;;;;;;;5.63;2.80;;;;;;;28.73;41.19;101167.47;4953934;28;20030;-61
2023/06/26 03:55:00;;;;;;;7.32;3.08;;;;;;;28.69;41.03;101177.34;4970096;28;20452;-61
2023/06/26 03:57:25;;;;;;;6.75;2.55;;;;;;;28.70;40.57;101176.25;4956696;28;20484;-61
2023/06/26 03:59:51;;;;;;;5.47;3.08;;;;;;;28.71;40.65;101178.78;4970041;28;20031;-62
2023/06/26 04:02:17;;;;;;;6.40;2.92;;;;;;;28.69;40.27;101175.41;4953848;28;20023;-61
2023/06/26 04:04:42;;;;;;;6.50;2.17;;;;;;;28.72;40.62;101179.59;4953733;28;20030;-62
2023/06/26 04:07:07;;;;;;;3.25;2.05;;;;;;;28.71;40.10;101172.41;4953952;28;20078;-61
2023/06/26 04:09:33;;;;;;;5.07;2.45;;;;;;;28.73;39.60;101184.03;4937862;28;20027;-63
2023/06/26 04:11:58;;;;;;;4.47;2.40;;;;;;;28.71;40.04;101186.19;4953820;28;25847;-63
2023/06/26 04:14:24;;;;;;;4.28;2.00;;;;;;;28.76;40.45;101189.06;4953884;28;20479;-61
2023/06/26 04:16:49;;;;;;;5.38;2.60;;;;;;;28.78;40.52;101190.50;4953841;28;20035;-62
2023/06/26 04:19:14;;;;;;;5.18;2.58;;;;;;;28.77;39.97;101176.97;4954900;28;20420;-62
2023/06/26 04:21:40;;;;;;;8.40;2.60;;;;;;;28.79;39.49;101191.34;4969390;28;20050;-62
2023/06/26 04:24:05;;;;;;;6.82;2.67;;;;;;;28.78;39.44;101184.97;4953728;28;20510;-62
2023/06/26 04:26:31;;;;;;;3.95;2.58;;;;;;;28.79;40.59;101185.84;4969643;28;20086;-62
2023/06/26 04:28:56;;;;;;;4.55;2.70;;;;;;;28.81;39.45;101180.94;4953674;28;20464;-62
2023/06/26 04:31:22;;;;;;;5.35;2.20;;;;;;;28.93;40.20;101179.00;4969943;28;20058;-62
2023/06/26 04:33:50;;;;;;;3.92;2.17;;;;;;;28.98;39.31;101195.66;4953732;28;20035;-62
2023/06/26 04:36:16;;;;;;;4.40;1.95;;;;;;;29.02;39.91;101190.50;4953883;28;20043;-61
2023/06/26 04:38:42;;;;;;;6.72;2.40;;;;;;;28.97;39.97;101196.75;4969443;28;20046;-61
2023/06/26 04:41:07;;;;;;;7.88;2.10;;;;;;;28.98;39.25;101201.16;4937370;28;20035;-61
2023/06/26 04:43:32;;;;;;;6.68;2.55;;;;;;;28.99;39.36;101202.84;4969553;28;20499;-61
2023/06/26 04:45:58;;;;;;;4.57;2.30;;;;;;;29.04;39.60;101205.72;4969416;28;20031;-61
2023/06/26 04:48:24;;;;;;;5.07;2.58;;;;;;;29.04;40.09;101205.72;4954626;28;20028;-62
2023/06/26 04:50:53;;;;;;;4.55;2.10;;;;;;;29.03;39.75;101209.59;4954424;28;20111;-61
2023/06/26 04:53:22;;;;;;;7.10;2.83;;;;;;;29.08;39.05;101217.13;4953422;28;20023;-61
2023/06/26 04:55:49;;;;;;;4.18;2.17;;;;;;;29.19;39.05;101225.41;4953598;28;20078;-62
2023/06/26 04:58:14;;;;;;;10.23;2.58;;;;;;;29.24;39.48;101228.31;4954976;28;20090;-62
2023/06/26 05:00:42;;;;;;;6.25;2.15;;;;;;;29.30;38.84;101220.97;4958558;28;20502;-62
2023/06/26 05:03:15;;;;;;;4.13;2.03;;;;;;;29.36;39.62;101222.78;4957578;28;20031;-62
2023/06/26 05:05:40;;;;;;;4.78;2.13;;;;;;;29.32;39.41;101218.81;4957251;28;20101;-62
2023/06/26 05:08:23;;;;;;;8.73;2.40;;;;;;;29.25;39.26;101235.50;4957166;28;20028;-63
2023/06/26 05:10:49;;;;;;;6.68;2.50;;;;;;;29.27;39.14;101230.59;4957281;28;20055;-62
2023/06/26 05:13:17;;;;;;;5.70;2.00;;;;;;;29.41;39.22;101223.72;4957073;28;20062;-62
2023/06/26 05:15:43;;;;;;;7.60;2.72;;;;;;;29.55;38.61;101223.44;4958418;28;20499;-62
2023/06/26 05:18:08;;;;;;;3.85;2.08;;;;;;;29.64;38.49;101220.06;4957124;28;20046;-62
2023/06/26 05:20:35;;;;;;;9.02;2.50;;;;;;;29.77;38.88;101221.69;4955927;28;20093;-62
2023/06/26 05:23:02;;;;;;;7.25;2.60;;;;;;;29.82;38.29;101224.56;4957123;28;20071;-62
2023/06/26 05:25:32;;;;;;;5.15;2.70;;;;;;;29.87;38.64;101230.22;4958227;28;20031;-63
2023/06/26 05:27:58;;;;;;;4.30;1.80;;;;;;;29.82;38.90;101230.09;4956962;28;20518;-62
2023/06/26 05:30:25;;;;;;;4.50;1.77;;;;;;;29.67;38.92;101238.91;4958013;28;20042;-61
2023/06/26 05:32:51;;;;;;;1.77;1.52;;;;;;;29.72;38.67;101238.16;4972994;28;20035;-62
2023/06/26 05:35:17;;;;;;;6.57;2.30;;;;;;;29.85;38.93;101248.94;4972747;28;20055;-62
2023/06/26 05:37:43;;;;;;;4.95;2.00;;;;;;;29.95;38.71;101246.41;4956927;28;20031;-61
2023/06/26 05:40:08;;;;;;;7.53;1.80;;;;;;;30.02;39.11;101236.88;4937514;28;20047;-61
2023/06/26 05:42:34;;;;;;;4.93;2.67;;;;;;;30.13;38.82;101250.88;4950753;28;20534;-62
2023/06/26 05:44:59;;;;;;;4.38;2.47;;;;;;;30.23;38.61;101243.63;4940850;28;20042;-62
2023/06/26 05:47:25;;;;;;;7.65;2.20;;;;;;;30.34;38.66;101245.50;4958733;28;20123;-62
2023/06/26 05:49:50;;;;;;;3.42;2.17;;;;;;;30.45;37.97;101236.31;4940329;28;20058;-62
2023/06/26 05:52:16;;;;;;;5.20;1.77;;;;;;;30.56;38.32;101248.38;4956503;28;20085;-63
2023/06/26 05:54:42;;;;;;;6.70;2.20;;;;;;;30.62;38.23;101246.53;4956114;28;20399;-62
2023/06/26 05:57:07;;;;;;;7.03;3.17;;;;;;;30.74;37.83;101250.09;4957596;28;20495;-61
2023/06/26 05:59:36;;;;;;;4.63;2.05;;;;;;;30.77;38.01;101257.84;4956181;28;20078;-63
2023/06/26 06:02:02;;;;;;;6.10;2.22;;;;;;;30.89;37.65;101253.06;4956277;28;20046;-61
2023/06/26 06:04:27;;;;;;;6.57;2.63;;;;;;;30.97;37.74;101253.53;4957878;28;20035;-61
2023/06/26 06:06:53;;;;;;;8.45;2.70;;;;;;;31.07;37.71;101255.63;4972899;28;20041;-63
2023/06/26 06:09:18;;;;;;;5.20;2.28;;;;;;;31.21;37.17;101261.63;4956671;28;20039;-61
2023/06/26 06:11:43;;;;;;;6.63;2.40;;;;;;;31.32;37.54;101258.75;4940884;28;20117;-62
2023/06/26 06:14:09;;;;;;;4.65;1.95;;;;;;;31.42;37.03;101272.72;4972573;28;20415;-62
2023/06/26 06:16:34;;;;;;;4.47;2.75;;;;;;;31.55;37.44;101277.91;4957099;28;20203;-62
2023/06/26 06:18:59;;;;;;;9.70;2.85;;;;;;;31.68;37.16;101273.94;4971851;28;20070;-62
2023/06/26 06:21:25;;;;;;;9.65;2.20;;;;;;;31.86;36.45;101286.63;4971582;28;20074;-61
2023/06/26 06:23:50;;;;;;;4.38;1.73;;;;;;;31.91;36.38;101292.25;4957142;28;20035;-63
2023/06/26 06:26:16;;;;;;;3.20;1.67;;;;;;;31.99;36.29;101294.56;4971798;28;20580;-61
2023/06/26 06:28:41;;;;;;;4.82;1.88;;;;;;;32.11;37.01;101295.28;4955795;28;20032;-61
2023/06/26 06:31:06;;;;;;;6.05;1.77;;;;;;;32.15;35.91;101302.00;4939702;29;20039;-61
2023/06/26 06:33:32;;;;;;;8.23;2.58;;;;;;;32.22;36.55;101302.59;4955573;28;20135;-62
2023/06/26 06:35:58;;;;;;;6.30;2.17;;;;;;;32.24;35.86;101301.28;4939601;29;20035;-61
2023/06/26 06:38:23;;;;;;;7.70;2.00;;;;;;;32.36;35.90;101309.41;4955451;28;20047;-63
2023/06/26 06:40:48;;;;;;;5.70;2.25;;;;;;;32.44;35.84;101310.91;4939532;29;20114;-62
2023/06/26 06:43:14;;;;;;;3.33;1.40;;;;;;;32.57;35.87;101308.56;4955413;28;20491;-62
2023/06/26 06:45:39;;;;;;;9.70;1.92;;;;;;;32.62;35.25;101325.28;4955613;28;20032;-61
2023/06/26 06:48:05;;;;;;;9.27;2.47;;;;;;;32.87;35.66;101319.09;4971353;28;20486;-62
2023/06/26 06:50:31;;;;;;;3.72;2.08;;;;;;;33.10;35.67;101323.50;4971427;28;20054;-62
2023/06/26 06:52:56;;;;;;;5.93;2.17;;;;;;;33.06;34.96;101331.50;4955289;28;20491;-61
2023/06/26 06:55:22;;;;;;;5.30;2.08;;;;;;;32.89;34.60;101325.22;4955293;28;20090;-61
2023/06/26 06:57:47;;;;;;;5.28;1.88;;;;;;;33.09;35.21;101335.69;4939304;29;20036;-63
2023/06/26 07:00:17;;;;;;;7.32;2.00;;;;;;;33.22;34.46;101330.50;4938952;28;20513;-61
2023/06/26 07:02:43;;;;;;;7.70;1.80;;;;;;;33.31;34.64;101322.53;4956557;28;20039;-61
2023/06/26 07:05:09;;;;;;;3.97;1.92;;;;;;;33.51;33.92;101322.66;4955259;28;20035;-61
2023/06/26 07:07:35;;;;;;;9.85;1.98;;;;;;;33.56;34.18;101333.78;4938980;28;20033;-61
2023/06/26 07:10:03;;;;;;;4.57;2.03;;;;;;;33.68;34.39;101334.47;4939134;29;20035;-61
2023/06/26 07:12:29;;;;;;;8.32;2.15;;;;;;;33.80;34.45;101337.88;4955038;28;20035;-62
2023/06/26 07:14:56;;;;;;;6.45;1.90;;;;;;;33.95;34.26;101339.88;4954937;28;20118;-62
2023/06/26 07:17:21;;;;;;;4.72;1.90;;;;;;;34.03;33.16;101352.44;4954568;28;20055;-62
2023/06/26 07:19:47;;;;;;;8.40;1.92;;;;;;;33.95;32.97;101346.25;4938755;29;20464;-63
2023/06/26 07:22:13;;;;;;;7.30;2.10;;;;;;;34.18;33.61;101355.28;4938343;28;20197;-61
2023/06/26 07:24:38;;;;;;;5.93;2.00;;;;;;;34.29;32.68;101362.56;4954793;28;20491;-62
2023/06/26 07:27:03;;;;;;;6.82;1.83;;;;;;;34.17;33.00;101360.03;4954708;28;20063;-62
2023/06/26 07:29:29;;;;;;;4.15;1.67;;;;;;;34.09;33.49;101356.94;4954829;28;20043;-61
2023/06/26 07:31:54;;;;;;;8.15;1.88;;;;;;;34.33;32.56;101364.53;4956033;28;20031;-61
2023/06/26 07:34:19;;;;;;;11.27;2.70;;;;;;;34.23;32.95;101375.63;4938699;29;20465;-61
2023/06/26 07:36:45;;;;;;;8.38;2.03;;;;;;;34.05;33.13;101380.81;4938574;28;20123;-61
2023/06/26 07:39:10;;;;;;;5.93;2.33;;;;;;;33.89;33.00;101389.06;4938495;29;20091;-61
2023/06/26 07:41:36;;;;;;;5.93;2.13;;;;;;;33.64;33.02;101394.47;4938234;29;20396;-62
2023/06/26 07:44:01;;;;;;;9.18;1.90;;;;;;;33.47;33.71;101376.28;4954505;28;20115;-61
2023/06/26 07:46:27;;;;;;;4.50;2.15;;;;;;;33.38;34.16;101389.81;4954251;28;20166;-61
2023/06/26 07:48:52;;;;;;;9.85;2.20;;;;;;;33.26;33.90;101391.94;4955404;28;20418;-61
2023/06/26 07:51:18;;;;;;;5.50;1.98;;;;;;;33.42;33.42;101396.50;4955504;28;20035;-62
2023/06/26 07:53:43;;;;;;;7.50;1.83;;;;;;;33.72;33.49;101388.44;4954056;28;20042;-62
2023/06/26 07:56:08;;;;;;;3.40;2.17;;;;;;;33.88;33.17;101384.63;4953964;28;20043;-61
2023/06/26 07:58:34;;;;;;;7.30;2.00;;;;;;;33.84;32.61;101383.47;4953879;28;20045;-61
2023/06/26 08:00:59;;;;;;;4.88;1.95;;;;;;;33.76;32.89;101395.09;4952006;29;20043;-61
2023/06/26 08:03:25;;;;;;;6.63;2.03;;;;;;;34.07;32.27;101398.03;4938090;28;20452;-62
2023/06/26 08:05:50;;;;;;;5.35;2.20;;;;;;;34.40;32.95;101403.22;4934826;28;20061;-62
2023/06/26 08:08:15;;;;;;;5.95;2.28;;;;;;;34.16;32.36;101397.31;4918792;29;20107;-61
2023/06/26 08:10:41;;;;;;;4.63;1.95;;;;;;;34.05;33.33;101416.97;4934660;28;20035;-61
2023/06/26 08:13:06;;;;;;;4.72;2.03;;;;;;;34.27;32.55;101415.72;4918751;29;20032;-61
2023/06/26 08:15:32;;;;;;;5.25;2.30;;;;;;;34.55;31.73;101417.19;4934508;28;20035;-60
2023/06/26 08:17:57;;;;;;;7.90;2.13;;;;;;;34.65;31.92;101410.88;4918756;29;20047;-63
2023/06/26 08:20:22;;;;;;;8.18;2.28;;;;;;;34.34;32.81;101416.28;4934744;28;20071;-62
2023/06/26 08:22:51;;;;;;;8.13;2.60;;;;;;;34.21;31.95;101404.81;4935632;28;20058;-61
2023/06/26 08:25:16;;;;;;;7.82;2.05;;;;;;;34.22;31.59;101409.28;4935980;28;20040;-61
2023/06/26 08:27:42;;;;;;;9.02;2.55;;;;;;;34.20;32.63;101415.09;4950342;28;20404;-62
2023/06/26 08:30:08;;;;;;;5.07;1.88;;;;;;;34.45;31.41;101417.19;4934411;28;20127;-61
2023/06/26 08:32:33;;;;;;;8.57;2.00;;;;;;;34.72;31.98;101415.06;4934029;28;20043;-63
2023/06/26 08:34:58;;;;;;;6.13;2.00;;;;;;;34.88;31.97;101421.47;4934481;28;20564;-62
2023/06/26 08:37:24;;;;;;;4.03;1.63;;;;;;;35.15;30.94;101421.28;4936107;28;20055;-62
2023/06/26 08:39:49;;;;;;;6.00;2.17;;;;;;;35.43;30.75;101417.94;4934549;28;20043;-62
2023/06/26 08:42:15;;;;;;;4.00;1.73;;;;;;;35.26;31.23;101418.19;4935679;28;20031;-62
2023/06/26 08:44:40;;;;;;;7.00;1.80;;;;;;;35.49;30.89;101416.78;4918212;28;20039;-62
2023/06/26 08:47:06;;;;;;;10.85;2.17;;;;;;;35.80;30.49;101423.19;4935654;28;20040;-62
2023/06/26 08:49:46;;;;;;;6.00;2.30;;;;;;;36.05;30.05;101409.19;4934317;28;20050;-62
2023/06/26 08:52:23;;;;;;;5.57;1.73;;;;;;;36.19;30.07;101416.69;4937105;28;20058;-62
2023/06/26 08:54:55;;;;;;;7.60;2.47;;;;;;;36.44;29.98;101418.53;4953363;28;20106;-62
2023/06/26 08:57:23;;;;;;;6.95;1.38;;;;;;;36.08;30.47;101420.63;4953274;28;20050;-62
2023/06/26 08:59:48;;;;;;;6.30;1.77;;;;;;;35.78;30.99;101425.44;4953446;28;20037;-62
2023/06/26 09:02:14;;;;;;;5.43;1.80;;;;;;;35.92;30.53;101424.56;4953515;28;20035;-62
2023/06/26 09:04:40;;;;;;;8.32;2.40;;;;;;;36.04;29.99;101425.09;4953470;28;20035;-61
2023/06/26 09:07:07;;;;;;;3.85;1.60;;;;;;;35.87;30.08;101423.75;4937246;29;20110;-62
2023/06/26 09:09:32;;;;;;;4.75;1.60;;;;;;;35.98;29.80;101417.84;4953213;28;20058;-62
2023/06/26 09:11:57;;;;;;;6.53;1.80;;;;;;;36.36;29.78;101421.06;4937169;28;20491;-62
2023/06/26 09:14:23;;;;;;;4.32;1.35;;;;;;;36.63;29.24;101422.34;4937183;28;20110;-62
2023/06/26 09:16:49;;;;;;;4.22;1.35;;;;;;;36.95;29.84;101424.66;4969372;28;20048;-62
2023/06/26 09:19:15;;;;;;;7.75;2.00;;;;;;;36.53;29.45;101421.59;4953154;28;20122;-62
2023/06/26 09:21:41;;;;;;;3.53;1.42;;;;;;;36.13;30.04;101425.34;4952915;28;20071;-61
2023/06/26 09:24:08;;;;;;;5.05;1.70;;;;;;;36.70;29.27;101434.06;4937108;29;20035;-62
2023/06/26 09:26:37;;;;;;;6.95;1.33;;;;;;;37.10;29.01;101432.16;4937265;29;20166;-62
2023/06/26 09:29:04;;;;;;;5.28;1.48;;;;;;;37.41;28.27;101438.31;4954150;28;20050;-62
2023/06/26 09:31:29;;;;;;;2.08;1.23;;;;;;;37.64;27.94;101434.75;4953431;28;20561;-62
2023/06/26 09:34:03;;;;;;;2.72;1.33;;;;;;;37.31;28.80;101445.66;4953054;28;20115;-61
2023/06/26 09:36:32;;;;;;;7.50;2.70;;;;;;;37.45;28.41;101445.00;4953031;28;20036;-62
2023/06/26 09:39:01;;;;;;;7.20;1.60;;;;;;;37.53;28.13;101442.44;4937471;29;20043;-62
2023/06/26 09:41:27;;;;;;;5.00;1.17;;;;;;;37.27;28.35;101444.56;4969128;28;20078;-62
2023/06/26 09:43:52;;;;;;;9.00;1.20;;;;;;;36.94;28.80;101447.31;4953939;28;20036;-62
2023/06/26 09:46:25;;;;;;;7.32;2.13;;;;;;;36.93;28.54;101443.69;4940386;29;20558;-62
2023/06/26 09:49:07;;;;;;;2.88;1.15;;;;;;;37.49;27.14;101451.72;4940857;29;20451;-62
2023/06/26 09:51:34;;;;;;;5.35;0.95;;;;;;;37.55;27.64;101447.75;4940360;29;20046;-62
2023/06/26 09:54:04;;;;;;;9.35;1.50;;;;;;;37.57;26.74;101453.88;4940472;29;20039;-61
2023/06/26 09:56:30;;;;;;;2.13;1.63;;;;;;;37.09;27.49;101464.00;4956691;28;20039;-63
2023/06/26 09:58:59;;;;;;;3.90;1.25;;;;;;;37.66;26.81;101454.91;4940253;29;20079;-61
2023/06/26 10:01:25;;;;;;;5.72;1.60;;;;;;;37.94;27.10;101459.69;4956375;28;20039;-61
2023/06/26 10:03:51;;;;;;;38.83;36.80;;;;;;;38.45;26.69;101471.97;4957457;28;20094;-61
2023/06/26 10:06:48;;;;;;;96.35;91.82;;;;;;;39.16;25.66;101468.19;4972158;28;20045;-62
2023/06/26 10:09:17;;;;;;;310.55;295.90;;;;;;;40.16;24.37;101461.97;4939855;28;20400;-61
2023/06/26 10:12:19;;;;;;;5.20;2.45;;;;;;;41.52;23.68;101447.63;4971702;28;20090;-61
2023/06/26 10:14:44;;;;;;;;;;;;;;;41.09;24.34;101450.13;4904775;29;20059;-61
2023/06/26 10:17:10;;;;;;;4.20;1.27;;;;;;;41.14;24.38;101460.41;4920107;29;19925;-61
2023/06/26 10:19:37;;;;;;;3.47;1.27;;;;;;;40.36;24.29;101453.13;4920068;29;20834;-63
2023/06/26 10:22:03;;;;;;;7.25;1.45;;;;;;;40.66;23.89;101444.06;4903975;29;20063;-62
2023/06/26 10:24:32;;;;;;;4.03;1.10;;;;;;;40.72;23.43;101446.75;4920031;29;20464;-65
2023/06/26 10:27:03;;;;;;;3.70;1.40;;;;;;;40.72;23.67;101446.75;4904128;29;20043;-61
2023/06/26 10:29:30;;;;;;;2.47;0.70;;;;;;;40.03;23.93;101446.78;4919949;29;20036;-62
2023/06/26 10:31:57;;;;;;;5.18;3.13;;;;;;;40.02;24.14;101461.09;4904223;29;20039;-61
2023/06/26 10:34:22;;;;;;;4.78;1.58;;;;;;;40.29;23.75;101466.75;4904213;29;20123;-62
2023/06/26 10:36:59;;;;;;;2.80;1.33;;;;;;;40.49;23.40;101460.75;4919731;29;20134;-62
2023/06/26 10:39:24;;;;;;;6.72;1.20;;;;;;;40.68;23.00;101467.06;4903851;29;20043;-62
2023/06/26 10:41:54;;;;;;;2.20;1.33;;;;;;;40.96;23.44;101462.22;4895290;29;20059;-61
2023/06/26 10:44:20;;;;;;;2.58;0.88;;;;;;;40.89;23.01;101469.41;4900687;29;20040;-61
2023/06/26 10:46:54;;;;;;;2.15;1.45;;;;;;;41.21;22.11;101467.22;4900753;29;20468;-62
2023/06/26 10:49:21;;;;;;;6.68;1.20;;;;;;;41.49;22.13;101467.16;4943172;28;20046;-61
2023/06/26 10:51:50;;;;;;;1.88;1.45;;;;;;;41.77;21.68;101475.13;4920640;28;20036;-61
2023/06/26 10:54:17;;;;;;;2.60;1.65;;;;;;;41.96;21.54;101463.66;4937476;28;20036;-62
2023/06/26 10:56:47;;;;;;;2.08;1.10;;;;;;;42.13;21.36;101474.16;4935606;28;20501;-61
2023/06/26 10:59:20;;;;;;;1.45;1.00;;;;;;;42.36;21.44;101481.38;4936107;28;20036;-61
2023/06/26 11:01:54;;;;;;;3.85;0.98;;;;;;;42.45;21.21;101487.88;4936320;28;20047;-62
2023/06/26 11:04:38;;;;;;;1.33;0.68;;;;;;;41.40;21.78;101492.41;4905491;29;20131;-62
2023/06/26 11:07:23;;;;;;;6.40;1.17;;;;;;;41.32;21.56;101492.31;4936127;28;20043;-61
2023/06/26 11:10:08;;;;;;;2.42;1.00;;;;;;;40.82;21.78;101483.09;4954615;28;20051;-61
2023/06/26 11:12:42;;;;;;;0.95;0.80;;;;;;;41.23;21.30;101483.81;4938858;29;20042;-61
2023/06/26 11:15:09;;;;;;;0.65;0.43;;;;;;;40.65;21.90;101487.34;4954815;28;20046;-61
2023/06/26 11:17:35;;;;;;;1.75;0.82;;;;;;;40.77;21.45;101489.63;4923201;29;20050;-62
2023/06/26 11:20:01;;;;;;;2.88;0.90;;;;;;;40.82;21.04;101492.31;4923178;29;20043;-61
2023/06/26 11:22:27;;;;;;;2.88;0.65;;;;;;;41.07;20.77;101494.59;4954584;28;20090;-61